createdAt,value
2022-09-01T00:05:02.291Z,19.3
2022-09-01T00:10:54.054Z,19
2022-09-01T00:16:46.048Z,19.2
2022-09-01T00:22:42.852Z,19
2022-09-01T00:29:44.007Z,19
2022-09-01T00:35:36.865Z,19.1
2022-09-01T00:41:28.584Z,18.8
2022-09-01T00:47:19.080Z,19
2022-09-01T00:53:11.312Z,18.9
2022-09-01T00:59:04.164Z,18.9
2022-09-01T01:04:55.539Z,18.8
2022-09-01T01:10:47.082Z,18.4
2022-09-01T01:16:38.019Z,18.6
2022-09-01T01:22:30.173Z,18.6
2022-09-01T01:28:22.138Z,18.6
2022-09-01T01:34:13.822Z,18.6
2022-09-01T01:40:04.446Z,18.3
2022-09-01T01:45:56.677Z,18
2022-09-01T01:51:47.291Z,18
2022-09-01T01:57:38.941Z,18
2022-09-01T02:03:30.657Z,17.9
2022-09-01T02:09:21.410Z,17.9
2022-09-01T02:15:13.734Z,17.8
2022-09-01T02:21:04.497Z,17.7
2022-09-01T02:27:00.031Z,17.6
2022-09-01T02:32:50.037Z,16.9
2022-09-01T02:38:41.565Z,17.2
2022-09-01T02:44:45.736Z,16.9
2022-09-01T02:50:38.161Z,17.4
2022-09-01T02:56:29.105Z,16.8
2022-09-01T03:02:21.271Z,17.1
2022-09-01T03:08:14.080Z,16.6
2022-09-01T03:14:07.089Z,16.8
2022-09-01T03:19:59.091Z,16.7
2022-09-01T03:25:50.190Z,16.5
2022-09-01T03:31:41.841Z,16.6
2022-09-01T03:37:34.426Z,16.5
2022-09-01T03:43:26.841Z,16.4
2022-09-01T03:49:33.862Z,16
2022-09-01T03:55:24.580Z,16
2022-09-01T04:01:16.027Z,15.8
2022-09-01T04:07:08.240Z,15.9
2022-09-01T04:13:05.804Z,16
2022-09-01T04:19:00.888Z,16.1
2022-09-01T04:24:52.492Z,15.6
2022-09-01T04:30:43.225Z,15.4
2022-09-01T04:36:41.734Z,15.5
2022-09-01T04:42:39.070Z,15.5
2022-09-01T04:48:32.017Z,15.3
2022-09-01T04:54:24.230Z,15.3
2022-09-01T05:00:16.721Z,15.6
2022-09-01T05:06:07.872Z,15.6
2022-09-01T05:11:59.010Z,15.6
2022-09-01T05:17:51.030Z,15.3
2022-09-01T05:23:43.973Z,15.5
2022-09-01T05:29:35.622Z,15.7
2022-09-01T05:35:31.655Z,15.8
2022-09-01T05:41:23.597Z,15.8
2022-09-01T05:47:20.394Z,15.8
2022-09-01T05:53:14.040Z,16
2022-09-01T05:59:27.259Z,16.4
2022-09-01T06:05:17.630Z,16.4
2022-09-01T06:11:10.422Z,16.4
2022-09-01T06:17:02.817Z,16.6
2022-09-01T06:22:54.593Z,16.6
2022-09-01T06:35:10.578Z,17.1
2022-09-01T06:41:34.964Z,17.1
2022-09-01T06:47:26.837Z,17
2022-09-01T06:59:32.578Z,17.2
2022-09-01T08:16:06.644Z,19.1
2022-09-01T08:22:21.503Z,19.3
2022-09-01T08:35:41.052Z,19.5
2022-09-01T09:01:30.470Z,20.1
2022-09-01T09:14:33.677Z,20.6
2022-09-01T10:20:24.804Z,22.4
2022-09-01T10:26:25.745Z,22.3
2022-09-01T10:38:58.695Z,22.5
2022-09-01T10:44:57.726Z,22.8
2022-09-01T10:50:49.703Z,22.7
2022-09-01T10:56:50.848Z,23.2
2022-09-01T11:02:53.186Z,23.1
2022-09-01T11:21:54.205Z,24
2022-09-01T11:52:35.577Z,23.7
2022-09-01T11:58:44.172Z,23.5
2022-09-01T12:04:47.835Z,23.5
2022-09-01T12:17:12.936Z,23.9
2022-09-01T12:36:31.959Z,23.9
2022-09-01T12:42:22.105Z,23.8
2022-09-01T12:48:14.042Z,24
2022-09-01T12:54:21.251Z,24
2022-09-01T13:00:12.503Z,23.8
2022-09-01T13:12:31.983Z,23.9
2022-09-01T13:25:43.864Z,24.3
2022-09-01T13:39:04.941Z,25.4
2022-09-01T13:44:56.984Z,25.3
2022-09-01T13:57:11.623Z,25.3
2022-09-01T14:03:02.659Z,25.8
2022-09-01T14:09:05.651Z,25.6
2022-09-01T14:15:13.394Z,26
2022-09-01T14:21:15.083Z,26
2022-09-01T14:33:44.100Z,26.3
2022-09-01T14:39:39.120Z,26
2022-09-01T14:45:40.570Z,26.1
2022-09-01T14:58:06.244Z,25.5
2022-09-01T15:04:03.549Z,25.4
2022-09-01T15:09:56.281Z,25.4
2022-09-01T15:15:48.606Z,25.3
2022-09-01T15:21:41.169Z,25.2
2022-09-01T15:27:38.294Z,25.3
2022-09-01T15:33:32.900Z,25.3
2022-09-01T15:39:28.075Z,25.8
2022-09-01T15:45:27.936Z,25.9
2022-09-01T15:51:18.704Z,25.9
2022-09-01T15:57:11.177Z,25.8
2022-09-01T16:03:01.362Z,25.6
2022-09-01T16:08:52.519Z,25.6
2022-09-01T16:14:42.793Z,25.4
2022-09-01T16:20:33.157Z,25.2
2022-09-01T16:26:24.376Z,25.2
2022-09-01T16:32:15.140Z,25.1
2022-09-01T16:38:06.427Z,25
2022-09-01T16:43:59.154Z,24.9
2022-09-01T16:49:50.623Z,24.9
2022-09-01T16:55:41.888Z,24.9
2022-09-01T17:01:33.458Z,25
2022-09-01T17:07:26.339Z,24.8
2022-09-01T17:13:21.815Z,24.6
2022-09-01T17:19:15.848Z,24.6
2022-09-01T17:25:06.686Z,24.5
2022-09-01T17:31:03.358Z,24.4
2022-09-01T17:36:55.689Z,24.3
2022-09-01T17:42:46.681Z,24.1
2022-09-01T17:48:38.128Z,23.9
2022-09-01T17:54:28.829Z,23.7
2022-09-01T18:00:20.021Z,23.5
2022-09-01T18:06:11.292Z,23.1
2022-09-01T18:12:03.206Z,22.9
2022-09-01T18:17:53.985Z,22.7
2022-09-01T18:23:45.036Z,22.3
2022-09-01T18:29:37.309Z,22.3
2022-09-01T18:35:31.181Z,22.2
2022-09-01T18:41:22.263Z,21.9
2022-09-01T18:47:16.485Z,21.8
2022-09-01T18:53:10.126Z,21.7
2022-09-01T18:59:03.538Z,21.6
2022-09-01T19:04:53.870Z,21.5
2022-09-01T19:10:45.221Z,21.4
2022-09-01T19:16:37.100Z,21.3
2022-09-01T19:22:28.269Z,21.2
2022-09-01T19:29:27.712Z,21.1
2022-09-01T19:35:18.298Z,21.2
2022-09-01T19:41:10.275Z,20.9
2022-09-01T19:47:01.553Z,20.8
2022-09-01T19:52:53.031Z,21.1
2022-09-01T19:58:43.717Z,20.7
2022-09-01T20:04:32.987Z,20.7
2022-09-01T20:10:23.154Z,20.6
2022-09-01T20:16:14.011Z,20.6
2022-09-01T20:22:05.854Z,20.5
2022-09-01T20:27:56.571Z,20.5
2022-09-01T20:33:48.950Z,20.5
2022-09-01T20:39:39.981Z,20.5
2022-09-01T20:45:30.980Z,20.6
2022-09-01T20:51:21.725Z,20.4
2022-09-01T20:57:17.509Z,20.5
2022-09-01T21:03:11.935Z,20.3
2022-09-01T21:09:05.167Z,20.5
2022-09-01T21:14:57.764Z,20.5
2022-09-01T21:20:50.180Z,20.5
2022-09-01T21:26:41.125Z,20.5
2022-09-01T21:32:33.266Z,20.5
2022-09-01T21:38:23.253Z,20.5
2022-09-01T21:44:14.642Z,20.3
2022-09-01T21:50:07.754Z,20.3
2022-09-01T21:56:01.014Z,20.3
2022-09-01T22:01:52.499Z,20.3
2022-09-01T22:07:45.374Z,20.3
2022-09-01T22:13:38.319Z,20.3
2022-09-01T22:19:29.212Z,20.3
2022-09-01T22:25:22.242Z,20
2022-09-01T22:31:13.427Z,19.9
2022-09-01T22:37:05.166Z,19.8
2022-09-01T22:42:57.884Z,20
2022-09-01T22:48:48.207Z,19.9
2022-09-01T22:54:39.427Z,19.8
2022-09-01T23:00:30.912Z,19.7
2022-09-01T23:06:27.861Z,19.7
2022-09-01T23:12:19.507Z,19.6
2022-09-01T23:18:11.049Z,19.7
2022-09-01T23:24:01.596Z,19.7
2022-09-01T23:29:52.981Z,19.3
2022-09-01T23:35:44.388Z,19.4
2022-09-01T23:41:35.317Z,19.5
2022-09-01T23:47:26.880Z,19.2
2022-09-01T23:53:17.525Z,19.4
2022-09-01T23:59:09.029Z,19.1
